Time;durP1;ratioP1;P1;durP2;ratioP2;P2;SDS_P1;SDS_P2;PMS_P1;PMS_P2;Temp;Humidity;BMP_temperature;BMP_pressure;BME280_temperature;BME280_humidity;BME280_pressure;Samples;Min_cycle;Max_cycle;Signal;HPM_P1;HPM_P2
2022/08/14 00:01:44;;;;;;;;;;;;;;;29.44;32.23;98521.56;4515688;31;34393;-91
2022/08/14 00:04:22;;;;;;;;;;;;;;;29.48;32.13;98528.38;4515418;31;33664;-91
2022/08/14 00:07:07;;;;;;;;;;;;;;;29.34;32.35;98522.22;4514480;31;33266;-91
2022/08/14 00:09:35;;;;;;;;;;;;;;;29.44;32.10;98516.22;4515730;31;34337;-91
2022/08/14 00:12:23;;;;;;;;;;;;;;;29.40;32.16;98518.25;4515767;31;34077;-90
2022/08/14 00:15:15;;;;;;;;;;;;;;;29.41;32.24;98521.78;4515060;31;35069;-86
2022/08/14 00:17:42;;;;;;;;;;;;;;;29.57;31.83;98520.53;4515724;31;32990;-89
2022/08/14 00:20:21;;;;;;;;;;;;;;;29.46;32.09;98520.44;4513241;31;34150;-91
2022/08/14 00:22:57;;;;;;;;;;;;;;;29.53;31.97;98520.84;4514439;31;33676;-91
2022/08/14 00:25:34;;;;;;;;;;;;;;;29.56;31.92;98521.47;4514844;31;33749;-91
2022/08/14 00:28:09;;;;;;;;;;;;;;;29.53;31.86;98527.03;4514362;31;33270;-90
2022/08/14 00:30:42;;;;;;;;;;;;;;;29.45;32.09;98510.75;4515492;31;34119;-89
2022/08/14 00:33:09;;;;;;;;;;;;;;;29.48;32.02;98507.84;4515119;31;33966;-87
2022/08/14 00:35:43;;;;;;;;;;;;;;;29.54;31.86;98502.03;4501232;31;33645;-91
2022/08/14 00:38:30;;;;;;;;;;;;;;;29.52;31.94;98509.31;4515733;31;33054;-89
2022/08/14 00:41:05;;;;;;;;;;;;;;;29.44;32.13;98506.38;4515452;31;34902;-90
2022/08/14 00:43:37;;;;;;;;;;;;;;;29.47;32.14;98513.28;4514847;31;34108;-87
2022/08/14 00:46:09;;;;;;;;;;;;;;;29.37;32.46;98506.94;4514114;31;34475;-89
2022/08/14 00:48:56;;;;;;;;;;;;;;;29.40;32.46;98504.91;4514188;31;33462;-91
2022/08/14 00:51:26;;;;;;;;;;;;;;;29.37;32.59;98496.28;4515373;31;34070;-91
2022/08/14 00:54:05;;;;;;;;;;;;;;;29.37;32.79;98505.13;4514624;31;34127;-89
2022/08/14 00:56:50;;;;;;;;;;;;;;;29.32;32.80;98497.47;4515318;31;34365;-86
2022/08/14 00:59:26;;;;;;;;;;;;;;;29.30;32.96;98504.72;4513978;31;33962;-90
2022/08/14 01:01:56;;;;;;;;;;;;;;;29.36;33.02;98498.09;4514138;31;33645;-91
2022/08/14 01:04:24;;;;;;;;;;;;;;;29.26;33.20;98503.25;4515017;31;34346;-91
2022/08/14 01:07:19;;;;;;;;;;;;;;;29.14;33.55;98498.00;4515149;31;35008;-89
2022/08/14 01:09:51;;;;;;;;;;;;;;;29.28;33.29;98505.81;4515265;31;33175;-91
2022/08/14 01:12:19;;;;;;;;;;;;;;;29.33;33.12;98498.31;4515300;31;35040;-91
2022/08/14 01:14:55;;;;;;;;;;;;;;;29.40;33.05;98506.69;4514763;31;35194;-91
2022/08/14 01:23:13;;;;;;;;;;;;;;;29.13;33.59;98501.59;4515173;31;34106;-88
2022/08/14 01:25:48;;;;;;;;;;;;;;;29.29;33.22;98508.38;4499243;31;34773;-90
2022/08/14 01:28:19;;;;;;;;;;;;;;;29.37;33.09;98509.63;4499514;31;33909;-89
2022/08/14 01:31:09;;;;;;;;;;;;;;;29.25;33.27;98503.38;4498396;31;34229;-92
2022/08/14 01:33:39;;;;;;;;;;;;;;;29.30;33.17;98507.41;4500547;31;34812;-91
2022/08/14 01:36:27;;;;;;;;;;;;;;;29.27;33.21;98509.44;4515291;31;34372;-91
2022/08/14 01:38:58;;;;;;;;;;;;;;;29.14;33.44;98509.50;4514158;31;35087;-91
2022/08/14 01:41:25;;;;;;;;;;;;;;;29.13;33.34;98513.13;4514557;31;33092;-91
2022/08/14 01:43:59;;;;;;;;;;;;;;;28.95;33.48;98514.47;4515126;31;34908;-91
2022/08/14 01:46:27;;;;;;;;;;;;;;;28.93;33.51;98521.72;4513682;31;34235;-91
2022/08/14 01:49:04;;;;;;;;;;;;;;;28.91;33.43;98519.19;4514827;31;34337;-91
2022/08/14 01:51:33;;;;;;;;;;;;;;;28.96;33.32;98511.69;4514827;31;33397;-91
2022/08/14 01:54:08;;;;;;;;;;;;;;;28.97;33.37;98512.53;4505162;31;35094;-91
2022/08/14 01:56:41;;;;;;;;;;;;;;;28.84;33.85;98508.09;4498896;31;33987;-91
2022/08/14 01:59:20;;;;;;;;;;;;;;;28.93;33.69;98513.72;4499102;31;34213;-91
2022/08/14 02:01:50;;;;;;;;;;;;;;;28.95;33.81;98509.97;4507537;31;34406;-91
2022/08/14 02:04:29;;;;;;;;;;;;;;;28.91;33.85;98508.50;4514822;31;34936;-91
2022/08/14 02:07:16;;;;;;;;;;;;;;;28.73;34.26;98507.16;4502773;31;32658;-90
2022/08/14 02:10:05;;;;;;;;;;;;;;;28.90;34.05;98520.13;4514338;31;34886;-90
2022/08/14 02:12:32;;;;;;;;;;;;;;;28.81;34.32;98518.12;4514641;31;33307;-89
2022/08/14 02:15:01;;;;;;;;;;;;;;;28.87;34.23;98509.69;4513953;31;36868;-91
2022/08/14 02:17:28;;;;;;;;;;;;;;;28.86;34.31;98513.31;4514491;31;34412;-89
2022/08/14 02:19:56;;;;;;;;;;;;;;;28.74;34.74;98523.03;4514042;31;35080;-91
2022/08/14 02:22:25;;;;;;;;;;;;;;;28.74;34.65;98522.19;4514760;31;33420;-91
2022/08/14 02:25:00;;;;;;;;;;;;;;;28.73;34.74;98515.16;4514777;31;33995;-91
2022/08/14 02:27:29;;;;;;;;;;;;;;;28.47;35.16;98517.88;4514763;31;33801;-88
2022/08/14 02:30:16;;;;;;;;;;;;;;;28.69;34.90;98513.69;4514233;31;34939;-87
2022/08/14 02:32:44;;;;;;;;;;;;;;;28.44;35.23;98510.09;4514343;31;33222;-91
2022/08/14 02:35:18;;;;;;;;;;;;;;;28.79;34.75;98509.38;4514514;31;33823;-91
2022/08/14 02:37:52;;;;;;;;;;;;;;;28.86;34.35;98506.16;4514033;31;34371;-92
2022/08/14 02:40:20;;;;;;;;;;;;;;;28.90;34.20;98508.59;4514421;31;34361;-91
2022/08/14 02:42:58;;;;;;;;;;;;;;;28.86;34.47;98510.62;4514257;31;33111;-91
2022/08/14 02:45:31;;;;;;;;;;;;;;;28.85;34.53;98517.78;4516033;31;34889;-91
2022/08/14 02:48:08;;;;;;;;;;;;;;;28.85;34.64;98509.78;4516015;31;34487;-91
2022/08/14 02:50:56;;;;;;;;;;;;;;;28.76;34.84;98509.63;4515954;31;34543;-89
2022/08/14 02:53:27;;;;;;;;;;;;;;;28.75;34.93;98516.78;4516195;31;33536;-91
2022/08/14 02:55:57;;;;;;;;;;;;;;;28.73;34.92;98512.50;4516073;31;35052;-87
2022/08/14 02:58:32;;;;;;;;;;;;;;;28.73;35.00;98509.84;4515796;31;34509;-90
2022/08/14 03:00:59;;;;;;;;;;;;;;;28.31;35.94;98509.22;4511678;31;33946;-89
2022/08/14 03:03:28;;;;;;;;;;;;;;;28.41;35.73;98515.63;4516000;31;33461;-90
2022/08/14 03:05:58;;;;;;;;;;;;;;;28.38;35.79;98513.22;4515041;31;33979;-89
2022/08/14 03:08:30;;;;;;;;;;;;;;;28.46;35.69;98520.66;4515285;31;34309;-90
2022/08/14 03:11:05;;;;;;;;;;;;;;;28.61;35.14;98517.75;4514925;31;34156;-91
2022/08/14 03:13:38;;;;;;;;;;;;;;;28.64;35.03;98523.81;4516222;31;33979;-90
2022/08/14 03:16:07;;;;;;;;;;;;;;;28.59;35.12;98519.66;4515766;31;33934;-91
2022/08/14 03:18:54;;;;;;;;;;;;;;;28.54;35.16;98521.81;4500207;31;33792;-92
2022/08/14 03:21:26;;;;;;;;;;;;;;;28.51;35.24;98519.34;4500063;31;34171;-91
2022/08/14 03:24:10;;;;;;;;;;;;;;;28.56;35.04;98519.03;4500263;31;32937;-91
2022/08/14 03:26:51;;;;;;;;;;;;;;;28.51;35.18;98516.69;4504887;31;34258;-90
2022/08/14 03:29:24;;;;;;;;;;;;;;;28.25;35.75;98518.50;4500206;31;33896;-91
2022/08/14 03:31:53;;;;;;;;;;;;;;;28.41;35.54;98520.97;4500218;31;34159;-87
2022/08/14 03:34:22;;;;;;;;;;;;;;;28.21;35.98;98514.34;4500163;31;33343;-91
2022/08/14 03:37:11;;;;;;;;;;;;;;;28.19;35.99;98528.75;4506987;31;34169;-90
2022/08/14 03:39:58;;;;;;;;;;;;;;;27.83;36.60;98532.97;4514888;31;34317;-91
2022/08/14 03:42:27;;;;;;;;;;;;;;;28.03;36.26;98527.12;4515695;31;34344;-92
2022/08/14 03:45:12;;;;;;;;;;;;;;;28.19;35.85;98523.44;4515899;31;34149;-91
2022/08/14 03:48:12;;;;;;;;;;;;;;;28.21;35.67;98521.50;4515453;31;34370;-91
2022/08/14 03:50:58;;;;;;;;;;;;;;;28.03;35.98;98516.47;4515700;31;34191;-91
2022/08/14 03:53:27;;;;;;;;;;;;;;;28.17;35.79;98523.50;4515597;31;34866;-91
2022/08/14 03:56:01;;;;;;;;;;;;;;;28.17;35.77;98520.00;4515866;31;32974;-91
2022/08/14 03:58:29;;;;;;;;;;;;;;;28.10;35.93;98532.88;4515157;31;34206;-89
2022/08/14 04:01:04;;;;;;;;;;;;;;;27.95;36.40;98524.13;4514445;31;35123;-91
2022/08/14 04:03:32;;;;;;;;;;;;;;;28.10;36.04;98525.75;4515904;31;34238;-91
2022/08/14 04:06:03;;;;;;;;;;;;;;;28.17;35.83;98518.19;4515606;31;33360;-92
2022/08/14 04:08:35;;;;;;;;;;;;;;;28.22;35.91;98523.19;4515429;31;35133;-91
2022/08/14 04:11:04;;;;;;;;;;;;;;;28.31;35.65;98522.56;4515687;31;35300;-90
2022/08/14 04:13:37;;;;;;;;;;;;;;;28.20;35.93;98528.63;4515801;31;34315;-90
2022/08/14 04:16:21;;;;;;;;;;;;;;;28.07;36.31;98533.97;4515207;31;33487;-90
2022/08/14 04:18:52;;;;;;;;;;;;;;;27.16;38.20;98540.94;4514532;31;33862;-90
2022/08/14 04:21:23;;;;;;;;;;;;;;;27.62;37.50;98544.09;4514199;31;34489;-90
2022/08/14 04:23:51;;;;;;;;;;;;;;;28.01;36.82;98541.53;4515404;31;33605;-91
2022/08/14 04:26:28;;;;;;;;;;;;;;;28.24;36.39;98539.94;4515534;31;33312;-89
2022/08/14 04:29:11;;;;;;;;;;;;;;;28.31;36.13;98533.22;4515587;31;34347;-90
2022/08/14 04:31:42;;;;;;;;;;;;;;;28.43;35.98;98531.53;4513465;31;34020;-91
2022/08/14 04:34:29;;;;;;;;;;;;;;;28.69;35.51;98537.69;4515583;31;33642;-89
2022/08/14 04:45:25;;;;;;;;;;;;;;;29.48;34.72;98547.06;4515695;31;34245;-91
2022/08/14 04:48:11;;;;;;;;;;;;;;;29.70;34.19;98538.28;4515370;31;32985;-91
2022/08/14 04:50:44;;;;;;;;;;;;;;;29.66;34.22;98543.00;4515180;31;34337;-90
2022/08/14 04:53:21;;;;;;;;;;;;;;;29.06;35.27;98539.44;4513992;31;35313;-87
2022/08/14 04:55:52;;;;;;;;;;;;;;;29.16;35.71;98530.75;4515164;31;35576;-89
2022/08/14 04:58:21;;;;;;;;;;;;;;;29.24;35.38;98536.38;4515211;31;33766;-89
2022/08/14 05:01:00;;;;;;;;;;;;;;;29.93;34.29;98529.41;4515105;31;34249;-90
2022/08/14 05:03:28;;;;;;;;;;;;;;;30.81;32.61;98538.63;4515209;31;34432;-91
2022/08/14 05:05:57;;;;;;;;;;;;;;;30.95;32.26;98538.34;4513888;31;34828;-90
2022/08/14 05:08:25;;;;;;;;;;;;;;;30.35;32.75;98539.59;4513743;31;33369;-84
2022/08/14 05:11:13;;;;;;;;;;;;;;;30.37;32.58;98533.12;4513525;31;33565;-90
2022/08/14 05:13:42;;;;;;;;;;;;;;;30.61;32.90;98540.16;4515393;31;35125;-89
2022/08/14 05:16:31;;;;;;;;;;;;;;;30.59;32.87;98542.12;4515304;31;34240;-89
2022/08/14 05:18:58;;;;;;;;;;;;;;;30.72;32.45;98540.16;4515257;31;34275;-89
2022/08/14 05:21:45;;;;;;;;;;;;;;;31.60;31.35;98533.94;4515150;31;34942;-88
2022/08/14 05:24:27;;;;;;;;;;;;;;;31.39;31.69;98542.78;4514977;31;34877;-89
2022/08/14 05:26:55;;;;;;;;;;;;;;;31.60;31.54;98536.63;4515078;31;34539;-89
2022/08/14 05:29:22;;;;;;;;;;;;;;;31.78;31.14;98523.47;4515200;31;32973;-90
2022/08/14 05:31:49;;;;;;;;;;;;;;;31.48;31.65;98541.16;4514801;31;34148;-90
2022/08/14 05:34:29;;;;;;;;;;;;;;;31.13;31.96;98536.84;4515121;31;35306;-89
2022/08/14 05:37:01;;;;;;;;;;;;;;;30.92;32.68;98544.81;4515018;31;34007;-89
2022/08/14 05:39:30;;;;;;;;;;;;;;;30.61;33.42;98538.37;4515028;31;33247;-88
2022/08/14 05:41:57;;;;;;;;;;;;;;;29.57;35.52;98547.25;4510816;31;34776;-89
2022/08/14 05:44:26;;;;;;;;;;;;;;;29.15;36.38;98553.91;4513747;31;34059;-89
2022/08/14 05:46:57;;;;;;;;;;;;;;;28.99;36.39;98551.53;4512574;31;34671;-88
2022/08/14 05:49:27;;;;;;;;;;;;;;;29.14;36.42;98546.88;4515023;31;33575;-88
2022/08/14 05:52:01;;;;;;;;;;;;;;;29.08;36.72;98545.50;4514921;31;34284;-89
2022/08/14 05:54:29;;;;;;;;;;;;;;;29.46;35.95;98552.50;4514575;31;33974;-88
2022/08/14 05:57:04;;;;;;;;;;;;;;;28.86;37.25;98550.66;4512246;31;33994;-88
2022/08/14 05:59:34;;;;;;;;;;;;;;;29.13;36.70;98558.50;4515278;31;33802;-89
2022/08/14 06:02:08;;;;;;;;;;;;;;;28.64;37.96;98548.69;4515059;31;34165;-88
2022/08/14 06:04:38;;;;;;;;;;;;;;;28.19;39.08;98550.94;4514437;31;35132;-89
2022/08/14 06:07:05;;;;;;;;;;;;;;;28.67;38.15;98548.44;4513575;31;35099;-88
2022/08/14 06:09:32;;;;;;;;;;;;;;;27.52;40.46;98550.97;4513692;31;33331;-90
2022/08/14 06:12:07;;;;;;;;;;;;;;;27.82;40.05;98555.25;4513489;31;34212;-88
2022/08/14 06:14:35;;;;;;;;;;;;;;;29.01;37.71;98549.56;4512293;31;33885;-91
2022/08/14 06:17:03;;;;;;;;;;;;;;;28.56;38.38;98549.25;4514605;31;33936;-89
2022/08/14 06:19:35;;;;;;;;;;;;;;;28.54;38.90;98543.16;4513410;31;33456;-89
2022/08/14 06:22:02;;;;;;;;;;;;;;;28.94;38.02;98544.75;4514546;31;34291;-88
2022/08/14 06:24:30;;;;;;;;;;;;;;;28.30;39.39;98539.53;4513910;31;34324;-86
2022/08/14 06:27:02;;;;;;;;;;;;;;;28.78;38.25;98539.69;4514601;31;34737;-89
2022/08/14 06:29:32;;;;;;;;;;;;;;;28.62;38.54;98539.94;4513274;31;33094;-87
2022/08/14 06:32:01;;;;;;;;;;;;;;;29.56;37.07;98542.84;4511526;31;33545;-89
2022/08/14 06:34:49;;;;;;;;;;;;;;;29.64;36.58;98541.44;4514405;31;35195;-89
2022/08/14 06:37:50;;;;;;;;;;;;;;;29.41;37.36;98538.66;4513148;31;33800;-87
2022/08/14 06:40:19;;;;;;;;;;;;;;;29.50;37.28;98547.78;4507153;31;33333;-88
2022/08/14 06:42:58;;;;;;;;;;;;;;;30.02;35.26;98542.03;4506055;31;34320;-89
2022/08/14 06:45:33;;;;;;;;;;;;;;;29.31;36.88;98541.12;4509768;31;34272;-87
2022/08/14 06:48:02;;;;;;;;;;;;;;;30.00;35.57;98544.00;4513217;31;34978;-87
2022/08/14 06:50:38;;;;;;;;;;;;;;;30.42;34.32;98530.94;4514243;31;32983;-84
2022/08/14 06:53:06;;;;;;;;;;;;;;;30.54;34.19;98521.94;4500424;31;33752;-84
2022/08/14 06:55:33;;;;;;;;;;;;;;;30.89;33.49;98520.97;4514346;31;35022;-85
2022/08/14 06:58:09;;;;;;;;;;;;;;;30.94;33.20;98526.78;4501698;31;34097;-88
2022/08/14 07:06:29;;;;;;;;;;;;;;;31.44;32.84;98519.16;4513652;31;35197;-85
2022/08/14 07:09:13;;;;;;;;;;;;;;;31.42;32.73;98518.41;4513681;31;34303;-85
2022/08/14 07:11:49;;;;;;;;;;;;;;;31.51;33.04;98522.16;4513785;31;34307;-85
2022/08/14 07:14:17;;;;;;;;;;;;;;;32.02;31.89;98520.59;4509993;31;34086;-85
2022/08/14 07:16:44;;;;;;;;;;;;;;;32.43;31.06;98509.81;4504726;31;34905;-84
2022/08/14 07:19:11;;;;;;;;;;;;;;;30.80;33.63;98524.41;4503455;31;34337;-85
2022/08/14 07:21:39;;;;;;;;;;;;;;;31.29;32.84;98525.72;4497675;31;33456;-84
2022/08/14 07:24:06;;;;;;;;;;;;;;;31.18;33.41;98523.94;4497728;31;34035;-84
2022/08/14 07:26:48;;;;;;;;;;;;;;;31.44;33.29;98519.16;4497786;31;35191;-85
2022/08/14 07:29:15;;;;;;;;;;;;;;;32.37;31.23;98513.00;4497705;31;34256;-84
2022/08/14 07:31:44;;;;;;;;;;;;;;;32.27;31.37;98513.94;4500116;31;34307;-84
2022/08/14 07:34:13;;;;;;;;;;;;;;;31.90;32.58;98523.34;4499773;31;34353;-85
2022/08/14 07:37:00;;;;;;;;;;;;;;;31.71;32.67;98528.53;4499826;31;35242;-85
2022/08/14 07:39:27;;;;;;;;;;;;;;;31.97;31.95;98511.09;4502166;31;34023;-85
2022/08/14 07:41:55;;;;;;;;;;;;;;;32.56;32.26;98511.44;4515806;31;34276;-84
2022/08/14 07:44:22;;;;;;;;;;;;;;;32.37;31.51;98507.63;4516026;31;33912;-85
2022/08/14 07:47:01;;;;;;;;;;;;;;;30.42;34.34;98514.91;4515951;31;33984;-85
2022/08/14 07:49:30;;;;;;;;;;;;;;;31.03;34.72;98519.84;4515178;31;34740;-85
2022/08/14 07:51:58;;;;;;;;;;;;;;;31.58;33.15;98519.81;4514461;31;33497;-86
2022/08/14 07:54:26;;;;;;;;;;;;;;;32.00;32.63;98509.13;4515491;31;35003;-85
2022/08/14 07:56:59;;;;;;;;;;;;;;;33.03;30.94;98504.50;4515842;31;34876;-85
2022/08/14 07:59:40;;;;;;;;;;;;;;;31.42;33.38;98518.41;4514055;31;34955;-85
2022/08/14 08:02:11;;;;;;;;;;;;;;;31.77;32.39;98511.06;4514804;31;33627;-84
2022/08/14 08:04:48;;;;;;;;;;;;;;;31.37;33.77;98515.28;4515351;31;35089;-85
2022/08/14 08:07:16;;;;;;;;;;;;;;;32.59;32.16;98506.63;4514372;31;34725;-88
2022/08/14 08:09:47;;;;;;;;;;;;;;;33.54;30.05;98502.62;4515464;31;33878;-85
2022/08/14 08:12:19;;;;;;;;;;;;;;;31.71;33.08;98509.78;4514745;31;33054;-86
2022/08/14 08:14:54;;;;;;;;;;;;;;;32.11;32.23;98507.22;4515528;31;34301;-86
2022/08/14 08:17:36;;;;;;;;;;;;;;;31.55;33.03;98514.69;4514537;31;33792;-87
2022/08/14 08:20:10;;;;;;;;;;;;;;;32.01;32.42;98505.47;4515259;31;34091;-86
2022/08/14 08:22:41;;;;;;;;;;;;;;;32.74;30.90;98504.44;4515633;31;34233;-87
2022/08/14 08:25:14;;;;;;;;;;;;;;;32.86;31.64;98506.00;4515708;31;35007;-86
2022/08/14 08:28:00;;;;;;;;;;;;;;;32.78;32.01;98511.22;4515385;31;35167;-86
2022/08/14 08:30:36;;;;;;;;;;;;;;;32.90;31.04;98496.69;4513831;31;34103;-89
2022/08/14 08:33:16;;;;;;;;;;;;;;;33.70;29.94;98497.50;4515484;31;33555;-87
2022/08/14 08:35:44;;;;;;;;;;;;;;;33.49;29.51;98496.78;4514455;31;35255;-87
2022/08/14 08:38:18;;;;;;;;;;;;;;;33.79;29.94;98498.47;4514088;31;33967;-84
2022/08/14 08:41:05;;;;;;;;;;;;;;;34.09;29.86;98492.06;4514702;31;34779;-83
2022/08/14 08:43:37;;;;;;;;;;;;;;;33.84;29.57;98497.06;4515353;31;33552;-83
2022/08/14 08:46:05;;;;;;;;;;;;;;;34.19;29.04;98497.44;4515397;31;34334;-83
2022/08/14 08:48:50;;;;;;;;;;;;;;;33.17;30.28;98500.56;4499222;31;34555;-83
2022/08/14 08:51:23;;;;;;;;;;;;;;;32.81;31.10;98500.22;4499604;31;34485;-82
2022/08/14 08:54:06;;;;;;;;;;;;;;;31.82;33.15;98500.78;4499657;31;34550;-84
2022/08/14 08:56:45;;;;;;;;;;;;;;;31.49;32.50;98505.38;4504115;31;34330;-82
2022/08/14 08:59:17;;;;;;;;;;;;;;;33.07;30.74;98499.72;4515310;31;34542;-85
2022/08/14 09:01:54;;;;;;;;;;;;;;;32.50;31.79;98495.84;4515094;31;34331;-83
2022/08/14 09:04:27;;;;;;;;;;;;;;;32.92;30.54;98486.69;4515563;31;34095;-82
2022/08/14 09:06:54;;;;;;;;;;;;;;;33.32;29.98;98482.22;4514847;31;34593;-84
2022/08/14 09:09:54;;;;;;;;;;;;;;;33.21;30.35;98493.94;4515591;31;35357;-83
2022/08/14 09:12:28;;;;;;;;;;;;;;;33.12;30.25;98484.87;4515345;31;34909;-84
2022/08/14 09:14:59;;;;;;;;;;;;;;;33.71;29.39;98483.06;4513542;31;33442;-84
2022/08/14 09:17:27;;;;;;;;;;;;;;;33.39;30.24;98492.25;4514947;31;34786;-84
2022/08/14 09:19:54;;;;;;;;;;;;;;;34.11;28.77;98482.03;4515337;31;34351;-85
2022/08/14 09:22:22;;;;;;;;;;;;;;;33.86;28.98;98487.00;4514025;31;35026;-83
2022/08/14 09:25:09;;;;;;;;;;;;;;;33.21;29.97;98480.50;4515251;31;33436;-83
2022/08/14 09:27:37;;;;;;;;;;;;;;;33.03;30.46;98474.97;4514819;31;34124;-84
2022/08/14 09:30:06;;;;;;;;;;;;;;;33.45;29.23;98472.00;4514016;31;34123;-83
2022/08/14 09:33:02;;;;;;;;;;;;;;;34.31;27.57;98470.19;4514713;31;34928;-83
2022/08/14 09:35:57;;;;;;;;;;;;;;;33.56;28.71;98468.37;4515250;31;34232;-85
2022/08/14 09:38:38;;;;;;;;;;;;;;;32.50;29.31;98463.66;4514410;31;34150;-82
2022/08/14 09:41:06;;;;;;;;;;;;;;;33.73;28.63;98464.97;4498081;31;35147;-84
2022/08/14 09:43:40;;;;;;;;;;;;;;;33.81;27.13;98459.69;4513708;31;34507;-83
2022/08/14 09:46:09;;;;;;;;;;;;;;;33.97;27.50;98464.47;4514716;31;32798;-84
2022/08/14 09:48:36;;;;;;;;;;;;;;;34.62;26.17;98459.16;4513861;31;34383;-84
2022/08/14 09:51:05;;;;;;;;;;;;;;;34.93;26.00;98464.22;4514672;31;35069;-83
2022/08/14 09:53:31;;;;;;;;;;;;;;;34.87;24.90;98460.31;4514262;31;34853;-82
2022/08/14 09:56:19;;;;;;;;;;;;;;;33.85;26.02;98453.03;4507388;31;33484;-84
2022/08/14 09:58:58;;;;;;;;;;;;;;;34.68;25.40;98449.66;4513886;31;34996;-84
2022/08/14 10:01:34;;;;;;;;;;;;;;;34.91;25.37;98456.31;4514071;31;35356;-84
2022/08/14 10:04:05;;;;;;;;;;;;;;;33.88;25.80;98449.22;4505360;31;34380;-83
2022/08/14 10:06:52;;;;;;;;;;;;;;;33.03;26.65;98453.47;4514208;31;33076;-84
2022/08/14 10:09:19;;;;;;;;;;;;;;;33.77;24.77;98458.28;4514674;31;32681;-82
2022/08/14 10:11:57;;;;;;;;;;;;;;;33.90;25.75;98455.28;4514362;31;34367;-82
2022/08/14 10:14:28;;;;;;;;;;;;;;;34.59;23.60;98446.87;4509606;31;34308;-82
2022/08/14 10:17:04;;;;;;;;;;;;;;;34.35;22.29;98444.66;4512212;31;33293;-82
2022/08/14 10:19:33;;;;;;;;;;;;;;;34.92;22.59;98457.16;4506564;31;34134;-82
2022/08/14 10:22:07;;;;;;;;;;;;;;;35.38;21.12;98449.88;4514947;31;34109;-84
2022/08/14 10:24:55;;;;;;;;;;;;;;;35.27;21.38;98437.47;4514465;31;34420;-82
2022/08/14 10:27:23;;;;;;;;;;;;;;;35.19;22.19;98451.72;4512703;31;34286;-83
2022/08/14 10:29:54;;;;;;;;;;;;;;;35.22;21.66;98450.56;4513887;31;34830;-83
2022/08/14 10:32:24;;;;;;;;;;;;;;;35.20;22.64;98448.03;4514540;31;35307;-85
2022/08/14 10:35:07;;;;;;;;;;;;;;;34.90;23.27;98453.78;4514094;31;35064;-84
2022/08/14 10:37:48;;;;;;;;;;;;;;;35.25;22.80;98455.66;4514609;31;33482;-84
2022/08/14 10:40:24;;;;;;;;;;;;;;;34.86;22.78;98443.28;4514376;31;34962;-83
2022/08/14 10:43:15;;;;;;;;;;;;;;;33.80;23.32;98439.19;4514367;31;34901;-83
2022/08/14 10:45:52;;;;;;;;;;;;;;;34.47;22.11;98444.47;4513002;31;34740;-82
2022/08/14 10:48:30;;;;;;;;;;;;;;;35.40;21.51;98432.53;4514159;31;32926;-83
2022/08/14 10:51:08;;;;;;;;;;;;;;;35.75;21.22;98431.66;4513985;31;35070;-82
2022/08/14 10:53:36;;;;;;;;;;;;;;;36.17;20.79;98435.47;4511503;31;34386;-83
2022/08/14 10:56:10;;;;;;;;;;;;;;;35.39;21.38;98427.31;4514275;31;34316;-83
2022/08/14 10:59:01;;;;;;;;;;;;;;;34.62;22.35;98446.53;4506136;31;32905;-82
2022/08/14 11:01:30;;;;;;;;;;;;;;;35.57;20.69;98426.31;4514073;31;34244;-84
2022/08/14 11:03:59;;;;;;;;;;;;;;;35.36;21.31;98436.56;4508123;31;34450;-82
2022/08/14 11:06:31;;;;;;;;;;;;;;;34.28;22.83;98438.19;4502128;31;34681;-83
2022/08/14 11:08:59;;;;;;;;;;;;;;;35.92;20.75;98437.19;4516060;31;34107;-85
2022/08/14 11:11:26;;;;;;;;;;;;;;;34.81;21.57;98426.72;4501642;31;34254;-85
2022/08/14 11:14:05;;;;;;;;;;;;;;;35.32;21.54;98425.25;4515835;31;34528;-85
2022/08/14 11:16:39;;;;;;;;;;;;;;;34.22;22.29;98417.28;4516319;31;34989;-84
2022/08/14 11:19:15;;;;;;;;;;;;;;;35.03;22.67;98417.38;4515925;31;33545;-84
2022/08/14 11:21:43;;;;;;;;;;;;;;;35.33;22.88;98402.66;4514869;31;34938;-85
2022/08/14 11:24:12;;;;;;;;;;;;;;;35.48;21.40;98405.66;4516122;31;35065;-85
2022/08/14 11:27:00;;;;;;;;;;;;;;;35.45;21.04;98399.72;4514746;31;34229;-84
2022/08/14 11:29:29;;;;;;;;;;;;;;;34.17;23.46;98406.09;4516349;31;33443;-84
2022/08/14 11:32:03;;;;;;;;;;;;;;;35.16;21.73;98398.16;4515020;31;33954;-84
2022/08/14 11:34:34;;;;;;;;;;;;;;;35.57;20.71;98398.50;4514917;31;34376;-85
2022/08/14 11:37:09;;;;;;;;;;;;;;;35.07;20.07;98394.53;4516038;31;34175;-84
2022/08/14 11:39:56;;;;;;;;;;;;;;;34.33;20.93;98394.72;4515423;31;33544;-84
2022/08/14 11:42:25;;;;;;;;;;;;;;;35.15;21.00;98374.91;4515565;31;33740;-85
2022/08/14 11:45:13;;;;;;;;;;;;;;;35.92;20.23;98391.31;4515110;31;34227;-84
2022/08/14 11:47:45;;;;;;;;;;;;;;;34.78;21.31;98386.66;4514483;31;34030;-86
2022/08/14 11:50:33;;;;;;;;;;;;;;;34.29;21.66;98378.03;4516178;31;32977;-85
2022/08/14 11:53:05;;;;;;;;;;;;;;;33.98;22.38;98371.19;4515610;31;34341;-85
2022/08/14 11:55:35;;;;;;;;;;;;;;;33.74;22.23;98364.50;4486105;31;34335;-84
2022/08/14 11:58:08;;;;;;;;;;;;;;;35.01;21.78;98381.69;4499914;31;34949;-85
2022/08/14 12:00:49;;;;;;;;;;;;;;;35.05;21.27;98363.37;4499783;31;32805;-85
2022/08/14 12:03:19;;;;;;;;;;;;;;;35.83;21.02;98350.78;4499953;31;33615;-84
2022/08/14 12:06:04;;;;;;;;;;;;;;;35.87;21.38;98355.88;4498798;31;34946;-84
2022/08/14 12:08:52;;;;;;;;;;;;;;;36.11;20.28;98352.50;4499353;31;34393;-85
2022/08/14 12:11:21;;;;;;;;;;;;;;;36.29;19.68;98351.38;4486364;31;34229;-85
2022/08/14 12:13:49;;;;;;;;;;;;;;;35.49;20.57;98352.56;4499684;31;33667;-86
2022/08/14 12:16:22;;;;;;;;;;;;;;;36.32;18.76;98349.34;4485066;31;34848;-85
2022/08/14 12:18:49;;;;;;;;;;;;;;;36.49;19.03;98356.53;4499149;31;35759;-85
2022/08/14 12:21:22;;;;;;;;;;;;;;;36.25;18.42;98343.75;4499746;31;34288;-86
2022/08/14 12:24:09;;;;;;;;;;;;;;;35.90;18.67;98345.59;4499405;31;35081;-86
2022/08/14 12:26:57;;;;;;;;;;;;;;;35.04;20.45;98348.19;4497793;31;34283;-85
2022/08/14 12:29:25;;;;;;;;;;;;;;;35.15;20.41;98345.25;4499501;31;34158;-83
2022/08/14 12:31:57;;;;;;;;;;;;;;;35.69;20.16;98343.31;4494009;31;33793;-83
2022/08/14 12:34:30;;;;;;;;;;;;;;;35.54;19.96;98331.44;4483845;32;34272;-84
2022/08/14 12:37:04;;;;;;;;;;;;;;;35.55;19.66;98333.13;4469707;32;34102;-84
2022/08/14 12:39:32;;;;;;;;;;;;;;;36.02;19.64;98330.00;4483622;32;33702;-84
2022/08/14 12:42:06;;;;;;;;;;;;;;;36.23;18.78;98340.37;4483970;32;33266;-85
2022/08/14 12:44:35;;;;;;;;;;;;;;;36.11;18.89;98334.44;4486491;31;34164;-84
2022/08/14 12:47:25;;;;;;;;;;;;;;;36.04;19.84;98338.78;4499842;31;34258;-85
2022/08/14 12:49:53;;;;;;;;;;;;;;;35.22;19.98;98335.56;4499271;31;34358;-84
2022/08/14 12:52:28;;;;;;;;;;;;;;;35.61;19.41;98329.75;4498536;31;33152;-85
2022/08/14 12:55:09;;;;;;;;;;;;;;;36.35;18.08;98322.88;4511075;31;34316;-84
2022/08/14 12:57:38;;;;;;;;;;;;;;;36.88;16.78;98320.78;4499876;31;34773;-85
2022/08/14 13:00:06;;;;;;;;;;;;;;;36.66;18.17;98312.31;4510565;31;34150;-86
2022/08/14 13:02:52;;;;;;;;;;;;;;;36.68;19.17;98318.41;4515482;31;33438;-86
2022/08/14 13:05:22;;;;;;;;;;;;;;;36.08;19.75;98317.72;4515244;31;33976;-85
2022/08/14 13:07:50;;;;;;;;;;;;;;;36.29;19.91;98319.00;4514749;31;35167;-85
2022/08/14 13:10:19;;;;;;;;;;;;;;;36.98;18.24;98303.44;4513804;31;35003;-85
2022/08/14 13:13:08;;;;;;;;;;;;;;;36.39;19.51;98317.97;4515302;31;33558;-86
2022/08/14 13:15:44;;;;;;;;;;;;;;;36.29;18.72;98310.03;4514269;31;33996;-85
2022/08/14 13:18:15;;;;;;;;;;;;;;;35.81;19.81;98312.34;4515048;31;34649;-86
2022/08/14 13:20:44;;;;;;;;;;;;;;;36.34;19.12;98313.09;4514933;31;34947;-85
2022/08/14 13:23:25;;;;;;;;;;;;;;;36.43;19.25;98309.37;4515158;31;33310;-85
2022/08/14 13:25:58;;;;;;;;;;;;;;;36.58;19.11;98309.59;4515269;31;34968;-85
2022/08/14 13:28:26;;;;;;;;;;;;;;;36.85;18.62;98313.00;4514330;31;34448;-85
2022/08/14 13:31:03;;;;;;;;;;;;;;;36.92;19.23;98308.63;4515053;31;34602;-85
2022/08/14 13:33:38;;;;;;;;;;;;;;;36.94;18.39;98302.09;4515338;31;34313;-85
2022/08/14 13:36:08;;;;;;;;;;;;;;;36.70;18.46;98300.16;4514634;31;34051;-86
2022/08/14 13:38:35;;;;;;;;;;;;;;;36.67;19.01;98295.13;4514955;31;34385;-85
2022/08/14 13:41:04;;;;;;;;;;;;;;;36.90;18.42;98294.44;4513623;31;34346;-85
2022/08/14 13:43:33;;;;;;;;;;;;;;;35.88;19.47;98301.78;4514841;31;34273;-83
2022/08/14 13:46:16;;;;;;;;;;;;;;;36.45;18.93;98299.28;4513455;31;34324;-85